sensor_id;sensor_type;location;lat;lon;timestamp;pressure;altitude;pressure_sealevel;temperature;humidity
77893;BME280;67087;50.094;14.338;2023-02-13T00:01:54;100033.51;;;27.73;31.31
77893;BME280;67087;50.094;14.338;2023-02-13T00:04:19;100026.85;;;27.54;31.51
77893;BME280;67087;50.094;14.338;2023-02-13T00:06:44;100031.11;;;27.88;31.43
77893;BME280;67087;50.094;14.338;2023-02-13T00:09:09;100028.74;;;27.60;31.41
77893;BME280;67087;50.094;14.338;2023-02-13T00:11:35;100031.06;;;27.74;31.23
77893;BME280;67087;50.094;14.338;2023-02-13T00:14:00;100027.18;;;27.67;31.29
77893;BME280;67087;50.094;14.338;2023-02-13T00:16:25;100024.94;;;27.60;31.33
77893;BME280;67087;50.094;14.338;2023-02-13T00:18:50;100021.70;;;27.48;31.44
77893;BME280;67087;50.094;14.338;2023-02-13T00:21:15;100021.02;;;27.46;31.43
77893;BME280;67087;50.094;14.338;2023-02-13T00:23:40;100024.04;;;27.39;31.49
77893;BME280;67087;50.094;14.338;2023-02-13T00:26:07;100024.58;;;27.51;31.34
77893;BME280;67087;50.094;14.338;2023-02-13T00:28:30;100022.09;;;27.41;31.38
77893;BME280;67087;50.094;14.338;2023-02-13T00:31:02;100023.07;;;27.76;31.26
77893;BME280;67087;50.094;14.338;2023-02-13T00:33:20;100025.77;;;27.50;31.27
77893;BME280;67087;50.094;14.338;2023-02-13T00:35:46;100030.51;;;27.42;31.37
77893;BME280;67087;50.094;14.338;2023-02-13T00:38:11;100033.24;;;27.54;31.19
77893;BME280;67087;50.094;14.338;2023-02-13T00:40:36;100031.19;;;27.48;31.26
77893;BME280;67087;50.094;14.338;2023-02-13T00:43:01;100028.24;;;27.73;31.22
77893;BME280;67087;50.094;14.338;2023-02-13T00:45:26;100029.17;;;27.50;31.22
77893;BME280;67087;50.094;14.338;2023-02-13T00:47:51;100029.81;;;27.39;31.31
77893;BME280;67087;50.094;14.338;2023-02-13T00:50:16;100031.56;;;27.31;31.39
77893;BME280;67087;50.094;14.338;2023-02-13T00:52:41;100029.88;;;26.98;31.20
77893;BME280;67087;50.094;14.338;2023-02-13T00:55:07;100027.90;;;27.33;31.30
77893;BME280;67087;50.094;14.338;2023-02-13T00:57:32;100025.07;;;27.46;31.15
77893;BME280;67087;50.094;14.338;2023-02-13T00:59:57;100024.56;;;27.77;31.10
77893;BME280;67087;50.094;14.338;2023-02-13T01:02:22;100025.53;;;27.60;31.01
77893;BME280;67087;50.094;14.338;2023-02-13T01:04:47;100024.70;;;27.51;31.14
77893;BME280;67087;50.094;14.338;2023-02-13T01:07:12;100025.58;;;27.57;31.28
77893;BME280;67087;50.094;14.338;2023-02-13T01:09:37;100026.84;;;27.61;30.96
77893;BME280;67087;50.094;14.338;2023-02-13T01:12:02;100024.75;;;27.38;31.17
77893;BME280;67087;50.094;14.338;2023-02-13T01:14:27;100021.61;;;27.12;31.18
77893;BME280;67087;50.094;14.338;2023-02-13T01:16:54;100016.87;;;27.36;31.17
77893;BME280;67087;50.094;14.338;2023-02-13T01:19:18;100016.65;;;27.36;31.12
77893;BME280;67087;50.094;14.338;2023-02-13T01:21:43;100014.17;;;27.42;31.04
77893;BME280;67087;50.094;14.338;2023-02-13T01:24:08;100012.97;;;27.39;31.08
77893;BME280;67087;50.094;14.338;2023-02-13T01:26:33;100011.58;;;27.36;31.11
77893;BME280;67087;50.094;14.338;2023-02-13T01:28:58;100010.96;;;27.29;31.17
77893;BME280;67087;50.094;14.338;2023-02-13T01:31:24;100011.45;;;27.20;31.04
77893;BME280;67087;50.094;14.338;2023-02-13T01:33:48;100008.44;;;27.41;31.09
77893;BME280;67087;50.094;14.338;2023-02-13T01:36:14;100013.76;;;27.42;31.02
77893;BME280;67087;50.094;14.338;2023-02-13T01:38:39;100014.01;;;27.39;31.03
77893;BME280;67087;50.094;14.338;2023-02-13T01:41:04;100013.09;;;27.48;30.90
77893;BME280;67087;50.094;14.338;2023-02-13T01:43:43;100012.04;;;27.58;30.78
77893;BME280;67087;50.094;14.338;2023-02-13T01:45:55;100014.52;;;27.59;30.74
77893;BME280;67087;50.094;14.338;2023-02-13T01:48:22;100016.36;;;27.65;30.67
77893;BME280;67087;50.094;14.338;2023-02-13T01:50:47;100012.35;;;27.65;30.64
77893;BME280;67087;50.094;14.338;2023-02-13T01:53:13;100013.65;;;27.68;30.60
77893;BME280;67087;50.094;14.338;2023-02-13T01:55:41;100010.95;;;27.70;30.56
77893;BME280;67087;50.094;14.338;2023-02-13T01:58:03;100011.04;;;27.69;30.61
77893;BME280;67087;50.094;14.338;2023-02-13T02:00:26;100011.02;;;27.74;30.53
77893;BME280;67087;50.094;14.338;2023-02-13T02:02:55;100009.58;;;27.67;30.59
77893;BME280;67087;50.094;14.338;2023-02-13T02:05:17;100009.63;;;27.40;30.59
77893;BME280;67087;50.094;14.338;2023-02-13T02:07:42;100009.87;;;27.88;30.61
77893;BME280;67087;50.094;14.338;2023-02-13T02:10:10;100006.52;;;27.99;30.46
77893;BME280;67087;50.094;14.338;2023-02-13T02:12:36;100003.42;;;27.76;30.41
77893;BME280;67087;50.094;14.338;2023-02-13T02:14:58;100003.76;;;27.73;30.43
77893;BME280;67087;50.094;14.338;2023-02-13T02:17:24;100000.31;;;27.67;30.49
77893;BME280;67087;50.094;14.338;2023-02-13T02:19:54;99998.91;;;27.75;30.40
77893;BME280;67087;50.094;14.338;2023-02-13T02:27:15;99993.35;;;27.70;30.44
77893;BME280;67087;50.094;14.338;2023-02-13T02:32:07;99995.06;;;27.68;30.38
77893;BME280;67087;50.094;14.338;2023-02-13T02:34:23;99992.10;;;27.97;30.32
77893;BME280;67087;50.094;14.338;2023-02-13T02:36:56;99990.26;;;27.70;30.33
77893;BME280;67087;50.094;14.338;2023-02-13T02:39:13;99991.34;;;27.80;30.19
77893;BME280;67087;50.094;14.338;2023-02-13T02:41:45;99988.22;;;27.59;30.12
77893;BME280;67087;50.094;14.338;2023-02-13T02:44:07;99985.91;;;27.82;30.14
77893;BME280;67087;50.094;14.338;2023-02-13T02:46:28;99983.21;;;27.82;30.13
77893;BME280;67087;50.094;14.338;2023-02-13T02:48:53;99978.68;;;27.52;30.23
77893;BME280;67087;50.094;14.338;2023-02-13T02:51:20;99976.16;;;27.68;30.29
77893;BME280;67087;50.094;14.338;2023-02-13T02:53:43;99977.52;;;27.73;30.21
77893;BME280;67087;50.094;14.338;2023-02-13T02:56:09;99975.25;;;27.81;30.13
77893;BME280;67087;50.094;14.338;2023-02-13T02:58:32;99973.84;;;27.23;30.22
77893;BME280;67087;50.094;14.338;2023-02-13T03:00:58;99971.20;;;27.71;30.18
77893;BME280;67087;50.094;14.338;2023-02-13T03:03:22;99970.68;;;27.49;30.14
77893;BME280;67087;50.094;14.338;2023-02-13T03:05:47;99971.53;;;27.79;30.08
77893;BME280;67087;50.094;14.338;2023-02-13T03:08:12;99969.13;;;27.71;30.16
77893;BME280;67087;50.094;14.338;2023-02-13T03:10:37;99968.03;;;27.70;30.22
77893;BME280;67087;50.094;14.338;2023-02-13T03:13:05;99964.55;;;27.62;30.31
77893;BME280;67087;50.094;14.338;2023-02-13T03:15:28;99963.53;;;27.92;30.19
77893;BME280;67087;50.094;14.338;2023-02-13T03:17:52;99966.47;;;27.71;30.16
77893;BME280;67087;50.094;14.338;2023-02-13T03:20:24;99964.96;;;27.40;30.26
77893;BME280;67087;50.094;14.338;2023-02-13T03:22:54;99965.20;;;27.51;30.36
77893;BME280;67087;50.094;14.338;2023-02-13T03:25:12;99969.05;;;27.52;30.36
77893;BME280;67087;50.094;14.338;2023-02-13T03:27:38;99975.17;;;27.83;30.27
77893;BME280;67087;50.094;14.338;2023-02-13T03:30:04;99977.69;;;27.55;30.29
77893;BME280;67087;50.094;14.338;2023-02-13T03:32:27;99980.03;;;27.61;30.23
77893;BME280;67087;50.094;14.338;2023-02-13T03:34:53;99982.54;;;27.94;30.12
77893;BME280;67087;50.094;14.338;2023-02-13T03:37:14;99981.04;;;27.56;30.25
77893;BME280;67087;50.094;14.338;2023-02-13T03:39:44;99978.71;;;27.57;30.25
77893;BME280;67087;50.094;14.338;2023-02-13T03:42:05;99974.15;;;27.60;30.27
77893;BME280;67087;50.094;14.338;2023-02-13T03:44:31;99970.77;;;27.48;30.36
77893;BME280;67087;50.094;14.338;2023-02-13T03:46:56;99969.73;;;27.57;30.26
77893;BME280;67087;50.094;14.338;2023-02-13T03:49:21;99967.67;;;27.77;30.31
77893;BME280;67087;50.094;14.338;2023-02-13T03:51:49;99968.43;;;27.48;30.35
77893;BME280;67087;50.094;14.338;2023-02-13T03:54:16;99968.81;;;27.55;30.25
77893;BME280;67087;50.094;14.338;2023-02-13T03:56:34;99968.89;;;27.63;30.19
77893;BME280;67087;50.094;14.338;2023-02-13T03:59:00;99969.03;;;27.65;30.16
77893;BME280;67087;50.094;14.338;2023-02-13T04:01:26;99970.90;;;27.67;30.12
77893;BME280;67087;50.094;14.338;2023-02-13T04:03:54;99971.15;;;27.88;30.14
77893;BME280;67087;50.094;14.338;2023-02-13T04:06:16;99970.82;;;27.50;30.02
77893;BME280;67087;50.094;14.338;2023-02-13T04:08:39;99969.92;;;27.72;30.02
77893;BME280;67087;50.094;14.338;2023-02-13T04:11:09;99972.47;;;27.71;30.00
77893;BME280;67087;50.094;14.338;2023-02-13T04:13:33;99972.95;;;27.71;30.03
77893;BME280;67087;50.094;14.338;2023-02-13T04:15:57;99973.58;;;27.76;30.00
77893;BME280;67087;50.094;14.338;2023-02-13T04:18:21;99974.63;;;27.72;30.05
77893;BME280;67087;50.094;14.338;2023-02-13T04:20:45;99974.97;;;27.74;29.98
77893;BME280;67087;50.094;14.338;2023-02-13T04:23:11;99973.73;;;27.76;29.99
77893;BME280;67087;50.094;14.338;2023-02-13T04:25:36;99971.60;;;27.79;29.90
77893;BME280;67087;50.094;14.338;2023-02-13T04:28:00;99970.61;;;27.79;29.88
77893;BME280;67087;50.094;14.338;2023-02-13T04:30:25;99970.16;;;27.78;29.92
77893;BME280;67087;50.094;14.338;2023-02-13T04:32:50;99967.01;;;27.74;29.94
77893;BME280;67087;50.094;14.338;2023-02-13T04:35:15;99969.29;;;27.67;29.97
77893;BME280;67087;50.094;14.338;2023-02-13T04:37:40;99968.33;;;27.74;29.90
77893;BME280;67087;50.094;14.338;2023-02-13T04:40:06;99968.74;;;27.63;30.05
77893;BME280;67087;50.094;14.338;2023-02-13T04:42:30;99973.24;;;27.76;29.89
77893;BME280;67087;50.094;14.338;2023-02-13T04:44:55;99975.58;;;27.68;29.95
77893;BME280;67087;50.094;14.338;2023-02-13T04:47:20;99973.27;;;28.02;29.81
77893;BME280;67087;50.094;14.338;2023-02-13T04:49:46;99975.02;;;27.85;29.75
77893;BME280;67087;50.094;14.338;2023-02-13T04:52:12;99974.37;;;27.72;29.89
77893;BME280;67087;50.094;14.338;2023-02-13T04:54:36;99971.21;;;27.68;29.90
77893;BME280;67087;50.094;14.338;2023-02-13T04:57:01;99972.61;;;27.73;29.88
77893;BME280;67087;50.094;14.338;2023-02-13T04:59:26;99970.47;;;27.52;29.83
77893;BME280;67087;50.094;14.338;2023-02-13T05:01:52;99971.35;;;27.69;29.90
77893;BME280;67087;50.094;14.338;2023-02-13T05:04:17;99968.31;;;27.63;29.90
77893;BME280;67087;50.094;14.338;2023-02-13T05:06:42;99965.36;;;27.57;30.05
77893;BME280;67087;50.094;14.338;2023-02-13T05:09:08;99967.47;;;27.65;30.02
77893;BME280;67087;50.094;14.338;2023-02-13T05:11:32;99964.29;;;27.80;30.09
77893;BME280;67087;50.094;14.338;2023-02-13T05:13:58;99965.95;;;27.59;30.05
77893;BME280;67087;50.094;14.338;2023-02-13T05:16:23;99970.21;;;27.61;30.07
77893;BME280;67087;50.094;14.338;2023-02-13T05:18:48;99972.01;;;27.62;30.13
77893;BME280;67087;50.094;14.338;2023-02-13T05:21:13;99966.90;;;27.70;30.11
77893;BME280;67087;50.094;14.338;2023-02-13T05:23:39;99967.81;;;27.51;30.48
77893;BME280;67087;50.094;14.338;2023-02-13T05:26:04;99972.93;;;27.67;30.25
77893;BME280;67087;50.094;14.338;2023-02-13T05:28:29;99972.72;;;27.49;30.17
77893;BME280;67087;50.094;14.338;2023-02-13T05:30:54;99976.21;;;27.67;29.93
77893;BME280;67087;50.094;14.338;2023-02-13T05:33:20;99981.43;;;27.78;29.78
77893;BME280;67087;50.094;14.338;2023-02-13T05:35:45;99981.02;;;27.86;29.75
77893;BME280;67087;50.094;14.338;2023-02-13T05:38:10;99983.33;;;27.82;29.81
77893;BME280;67087;50.094;14.338;2023-02-13T05:40:35;99978.97;;;27.75;29.96
77893;BME280;67087;50.094;14.338;2023-02-13T05:43:00;99976.25;;;27.93;30.09
77893;BME280;67087;50.094;14.338;2023-02-13T05:45:26;99975.69;;;27.42;30.14
77893;BME280;67087;50.094;14.338;2023-02-13T05:47:51;99974.38;;;27.56;30.26
77893;BME280;67087;50.094;14.338;2023-02-13T05:50:16;99971.72;;;27.62;30.28
77893;BME280;67087;50.094;14.338;2023-02-13T05:52:41;99972.72;;;27.78;30.09
77893;BME280;67087;50.094;14.338;2023-02-13T05:55:07;99972.70;;;27.71;30.34
77893;BME280;67087;50.094;14.338;2023-02-13T05:57:31;99974.09;;;27.75;30.37
77893;BME280;67087;50.094;14.338;2023-02-13T05:59:56;99975.98;;;27.46;30.39
77893;BME280;67087;50.094;14.338;2023-02-13T06:02:21;99980.19;;;27.71;30.58
77893;BME280;67087;50.094;14.338;2023-02-13T06:04:46;99977.50;;;27.45;30.70
77893;BME280;67087;50.094;14.338;2023-02-13T06:07:12;99978.77;;;27.73;30.82
77893;BME280;67087;50.094;14.338;2023-02-13T06:09:37;99979.44;;;27.74;31.06
77893;BME280;67087;50.094;14.338;2023-02-13T06:12:02;99981.22;;;27.51;31.09
77893;BME280;67087;50.094;14.338;2023-02-13T06:14:28;99984.77;;;27.81;30.85
77893;BME280;67087;50.094;14.338;2023-02-13T06:16:53;99987.26;;;27.56;30.76
77893;BME280;67087;50.094;14.338;2023-02-13T06:19:18;99989.95;;;27.51;30.79
77893;BME280;67087;50.094;14.338;2023-02-13T06:21:43;99992.02;;;27.82;30.64
77893;BME280;67087;50.094;14.338;2023-02-13T06:24:08;99990.59;;;27.80;30.62
77893;BME280;67087;50.094;14.338;2023-02-13T06:26:34;99984.47;;;27.76;30.72
77893;BME280;67087;50.094;14.338;2023-02-13T06:28:59;99986.91;;;27.81;30.68
77893;BME280;67087;50.094;14.338;2023-02-13T06:31:24;99987.61;;;27.62;30.64
77893;BME280;67087;50.094;14.338;2023-02-13T06:33:49;99987.29;;;27.64;30.68
77893;BME280;67087;50.094;14.338;2023-02-13T06:36:15;99988.32;;;27.89;30.65
77893;BME280;67087;50.094;14.338;2023-02-13T06:38:40;99990.59;;;27.80;30.69
77893;BME280;67087;50.094;14.338;2023-02-13T06:41:06;99994.01;;;27.78;30.75
77893;BME280;67087;50.094;14.338;2023-02-13T06:43:31;99996.46;;;27.50;30.86
77893;BME280;67087;50.094;14.338;2023-02-13T06:45:56;99995.92;;;27.78;30.76
77893;BME280;67087;50.094;14.338;2023-02-13T06:48:22;99995.09;;;28.03;30.45
77893;BME280;67087;50.094;14.338;2023-02-13T06:50:47;99995.60;;;27.98;30.49
77893;BME280;67087;50.094;14.338;2023-02-13T06:53:12;99999.06;;;27.78;31.14
77893;BME280;67087;50.094;14.338;2023-02-13T06:55:37;99997.87;;;27.75;31.53
77893;BME280;67087;50.094;14.338;2023-02-13T06:58:02;99995.89;;;27.64;32.61
77893;BME280;67087;50.094;14.338;2023-02-13T07:00:28;99995.03;;;27.69;32.08
77893;BME280;67087;50.094;14.338;2023-02-13T07:02:53;99996.33;;;27.61;31.28
77893;BME280;67087;50.094;14.338;2023-02-13T07:05:19;99992.26;;;27.62;31.11
77893;BME280;67087;50.094;14.338;2023-02-13T07:07:43;99996.18;;;27.72;31.01
77893;BME280;67087;50.094;14.338;2023-02-13T07:10:11;99999.49;;;27.69;31.06
77893;BME280;67087;50.094;14.338;2023-02-13T07:12:35;99999.62;;;27.83;31.01
77893;BME280;67087;50.094;14.338;2023-02-13T07:14:59;99998.24;;;27.80;31.25
77893;BME280;67087;50.094;14.338;2023-02-13T07:17:24;100000.84;;;27.73;31.31
77893;BME280;67087;50.094;14.338;2023-02-13T07:19:49;100005.99;;;27.69;31.20
77893;BME280;67087;50.094;14.338;2023-02-13T07:22:15;100009.66;;;27.66;31.44
77893;BME280;67087;50.094;14.338;2023-02-13T07:24:40;100015.44;;;27.45;31.25
77893;BME280;67087;50.094;14.338;2023-02-13T07:27:05;100015.47;;;27.61;30.21
77893;BME280;67087;50.094;14.338;2023-02-13T07:29:30;100015.93;;;27.40;30.02
77893;BME280;67087;50.094;14.338;2023-02-13T07:31:55;100019.86;;;27.76;29.98
77893;BME280;67087;50.094;14.338;2023-02-13T07:34:20;100019.16;;;27.68;29.99
77893;BME280;67087;50.094;14.338;2023-02-13T07:36:46;100019.96;;;27.64;29.96
77893;BME280;67087;50.094;14.338;2023-02-13T07:39:12;100020.97;;;27.68;29.88
77893;BME280;67087;50.094;14.338;2023-02-13T07:41:36;100021.93;;;27.62;30.33
77893;BME280;67087;50.094;14.338;2023-02-13T07:44:02;100017.84;;;27.63;30.38
77893;BME280;67087;50.094;14.338;2023-02-13T07:46:27;100017.37;;;27.77;29.74
77893;BME280;67087;50.094;14.338;2023-02-13T07:48:52;100015.08;;;28.31;28.64
77893;BME280;67087;50.094;14.338;2023-02-13T07:51:17;100018.34;;;28.31;28.58
77893;BME280;67087;50.094;14.338;2023-02-13T07:53:43;100017.03;;;28.39;27.87
77893;BME280;67087;50.094;14.338;2023-02-13T07:56:09;100014.37;;;28.01;28.54
77893;BME280;67087;50.094;14.338;2023-02-13T07:58:34;100017.26;;;27.97;28.32
77893;BME280;67087;50.094;14.338;2023-02-13T08:01:00;100014.09;;;27.91;27.77
77893;BME280;67087;50.094;14.338;2023-02-13T08:03:24;100012.79;;;28.20;27.90
77893;BME280;67087;50.094;14.338;2023-02-13T08:05:49;100016.86;;;27.72;28.25
77893;BME280;67087;50.094;14.338;2023-02-13T08:08:14;100015.31;;;28.09;27.40
77893;BME280;67087;50.094;14.338;2023-02-13T08:10:39;100013.13;;;28.20;27.32
77893;BME280;67087;50.094;14.338;2023-02-13T08:13:05;100013.78;;;28.36;27.49
77893;BME280;67087;50.094;14.338;2023-02-13T08:15:30;100013.47;;;27.63;27.94
77893;BME280;67087;50.094;14.338;2023-02-13T08:17:55;100010.81;;;27.40;27.75
77893;BME280;67087;50.094;14.338;2023-02-13T08:20:21;100005.92;;;27.32;27.75
77893;BME280;67087;50.094;14.338;2023-02-13T08:22:45;100007.65;;;27.27;27.91
77893;BME280;67087;50.094;14.338;2023-02-13T08:25:11;100003.34;;;27.70;28.25
77893;BME280;67087;50.094;14.338;2023-02-13T08:27:37;100002.62;;;27.08;28.54
77893;BME280;67087;50.094;14.338;2023-02-13T08:30:02;100004.17;;;27.38;28.27
77893;BME280;67087;50.094;14.338;2023-02-13T08:32:27;100005.74;;;27.62;28.43
77893;BME280;67087;50.094;14.338;2023-02-13T08:34:52;100007.03;;;27.47;28.22
77893;BME280;67087;50.094;14.338;2023-02-13T08:37:17;100005.59;;;27.52;28.36
77893;BME280;67087;50.094;14.338;2023-02-13T08:39:43;100005.99;;;27.44;28.65
77893;BME280;67087;50.094;14.338;2023-02-13T08:42:08;100005.17;;;27.13;28.40
77893;BME280;67087;50.094;14.338;2023-02-13T08:44:33;100004.50;;;27.02;28.19
77893;BME280;67087;50.094;14.338;2023-02-13T08:46:59;100007.94;;;27.62;27.58
77893;BME280;67087;50.094;14.338;2023-02-13T08:49:24;100009.37;;;27.59;27.58
77893;BME280;67087;50.094;14.338;2023-02-13T08:51:50;100012.47;;;27.35;27.45
77893;BME280;67087;50.094;14.338;2023-02-13T08:54:15;100012.81;;;27.21;27.75
77893;BME280;67087;50.094;14.338;2023-02-13T08:56:40;100010.91;;;27.33;27.50
77893;BME280;67087;50.094;14.338;2023-02-13T08:59:05;100013.97;;;27.37;27.33
77893;BME280;67087;50.094;14.338;2023-02-13T09:01:30;100016.16;;;27.48;27.42
77893;BME280;67087;50.094;14.338;2023-02-13T09:03:56;100015.20;;;27.21;27.52
77893;BME280;67087;50.094;14.338;2023-02-13T09:06:21;100017.49;;;27.38;27.40
77893;BME280;67087;50.094;14.338;2023-02-13T09:08:47;100020.56;;;27.40;27.54
77893;BME280;67087;50.094;14.338;2023-02-13T09:11:13;100023.64;;;27.32;27.36
77893;BME280;67087;50.094;14.338;2023-02-13T09:13:38;100019.42;;;27.17;27.31
77893;BME280;67087;50.094;14.338;2023-02-13T09:16:06;100021.35;;;27.04;27.33
77893;BME280;67087;50.094;14.338;2023-02-13T09:18:30;100025.32;;;26.98;27.19
77893;BME280;67087;50.094;14.338;2023-02-13T09:20:58;100023.01;;;27.35;27.04
77893;BME280;67087;50.094;14.338;2023-02-13T09:23:21;100022.22;;;27.07;27.03
77893;BME280;67087;50.094;14.338;2023-02-13T09:25:47;100022.52;;;27.06;27.11
77893;BME280;67087;50.094;14.338;2023-02-13T09:28:12;100023.96;;;27.06;27.15
77893;BME280;67087;50.094;14.338;2023-02-13T09:30:37;100022.88;;;26.95;27.12
77893;BME280;67087;50.094;14.338;2023-02-13T09:33:03;100023.67;;;27.15;27.01
77893;BME280;67087;50.094;14.338;2023-02-13T09:35:28;100019.53;;;27.25;26.76
77893;BME280;67087;50.094;14.338;2023-02-13T09:37:54;100018.78;;;27.15;27.72
77893;BME280;67087;50.094;14.338;2023-02-13T09:40:25;100023.11;;;27.84;27.20
77893;BME280;67087;50.094;14.338;2023-02-13T09:42:46;100020.08;;;27.39;26.70
77893;BME280;67087;50.094;14.338;2023-02-13T09:45:11;100025.18;;;27.31;26.81
77893;BME280;67087;50.094;14.338;2023-02-13T09:47:38;100027.65;;;27.16;26.92
77893;BME280;67087;50.094;14.338;2023-02-13T09:50:04;100023.90;;;26.83;27.05
77893;BME280;67087;50.094;14.338;2023-02-13T09:52:32;100029.01;;;26.88;26.99
77893;BME280;67087;50.094;14.338;2023-02-13T09:54:52;100029.15;;;27.08;27.18
77893;BME280;67087;50.094;14.338;2023-02-13T09:57:24;100034.78;;;27.03;27.26
77893;BME280;67087;50.094;14.338;2023-02-13T09:59:52;100037.06;;;27.24;27.13
77893;BME280;67087;50.094;14.338;2023-02-13T10:02:22;100034.68;;;28.04;26.57
77893;BME280;67087;50.094;14.338;2023-02-13T10:04:40;100035.99;;;27.42;26.83
77893;BME280;67087;50.094;14.338;2023-02-13T10:07:13;100034.73;;;27.27;26.70
77893;BME280;67087;50.094;14.338;2023-02-13T10:09:30;100036.65;;;27.64;25.88
77893;BME280;67087;50.094;14.338;2023-02-13T10:12:03;100033.68;;;27.42;26.54
77893;BME280;67087;50.094;14.338;2023-02-13T10:14:17;100035.23;;;27.37;26.86
77893;BME280;67087;50.094;14.338;2023-02-13T10:16:44;100036.46;;;27.60;25.91
77893;BME280;67087;50.094;14.338;2023-02-13T10:19:15;100036.86;;;27.77;25.92
77893;BME280;67087;50.094;14.338;2023-02-13T10:21:35;100039.26;;;27.63;26.35
77893;BME280;67087;50.094;14.338;2023-02-13T10:24:02;100039.41;;;27.96;25.84
77893;BME280;67087;50.094;14.338;2023-02-13T10:26:26;100040.13;;;27.69;26.12
77893;BME280;67087;50.094;14.338;2023-02-13T10:28:54;100040.96;;;27.80;26.08
77893;BME280;67087;50.094;14.338;2023-02-13T10:31:16;100037.04;;;27.51;26.95
77893;BME280;67087;50.094;14.338;2023-02-13T10:33:45;100032.86;;;27.24;27.16
77893;BME280;67087;50.094;14.338;2023-02-13T10:36:15;100032.14;;;27.00;27.38
77893;BME280;67087;50.094;14.338;2023-02-13T10:38:32;100027.34;;;27.74;26.93
77893;BME280;67087;50.094;14.338;2023-02-13T10:41:04;100025.89;;;27.09;27.04
77893;BME280;67087;50.094;14.338;2023-02-13T10:43:26;100024.19;;;26.86;27.50
77893;BME280;67087;50.094;14.338;2023-02-13T10:45:56;100022.51;;;27.31;27.15
77893;BME280;67087;50.094;14.338;2023-02-13T10:48:23;100022.60;;;27.31;26.88
77893;BME280;67087;50.094;14.338;2023-02-13T10:50:42;100023.72;;;27.74;26.49
77893;BME280;67087;50.094;14.338;2023-02-13T10:53:12;100020.26;;;27.21;26.89
77893;BME280;67087;50.094;14.338;2023-02-13T10:58:03;100020.74;;;27.90;26.29
77893;BME280;67087;50.094;14.338;2023-02-13T11:00:24;100019.45;;;27.40;26.81
77893;BME280;67087;50.094;14.338;2023-02-13T11:02:45;100015.56;;;27.38;26.97
77893;BME280;67087;50.094;14.338;2023-02-13T11:05:15;100013.48;;;27.65;26.66
77893;BME280;67087;50.094;14.338;2023-02-13T11:07:36;100011.03;;;27.16;27.27
77893;BME280;67087;50.094;14.338;2023-02-13T11:10:12;100004.75;;;27.31;27.07
77893;BME280;67087;50.094;14.338;2023-02-13T11:12:28;100003.64;;;26.99;27.57
77893;BME280;67087;50.094;14.338;2023-02-13T11:14:53;99998.59;;;27.15;27.68
77893;BME280;67087;50.094;14.338;2023-02-13T11:17:18;99999.07;;;27.04;27.86
77893;BME280;67087;50.094;14.338;2023-02-13T11:19:48;99997.52;;;27.16;27.68
77893;BME280;67087;50.094;14.338;2023-02-13T11:22:11;99998.43;;;27.24;27.47
77893;BME280;67087;50.094;14.338;2023-02-13T11:24:35;99997.78;;;27.60;27.36
77893;BME280;67087;50.094;14.338;2023-02-13T11:27:02;99991.70;;;27.27;27.77
77893;BME280;67087;50.094;14.338;2023-02-13T11:29:28;99991.35;;;27.29;27.91
77893;BME280;67087;50.094;14.338;2023-02-13T11:32:01;99995.11;;;27.52;28.07
77893;BME280;67087;50.094;14.338;2023-02-13T11:36:41;99994.64;;;27.91;27.96
77893;BME280;67087;50.094;14.338;2023-02-13T11:39:17;99992.47;;;27.54;28.53
77893;BME280;67087;50.094;14.338;2023-02-13T11:43:59;99988.29;;;27.61;28.30
77893;BME280;67087;50.094;14.338;2023-02-13T11:46:24;99987.42;;;27.61;28.46
77893;BME280;67087;50.094;14.338;2023-02-13T11:51:14;99992.16;;;27.56;28.49
77893;BME280;67087;50.094;14.338;2023-02-13T11:53:39;99987.35;;;27.49;28.66
77893;BME280;67087;50.094;14.338;2023-02-13T11:56:08;99983.84;;;27.74;28.81
77893;BME280;67087;50.094;14.338;2023-02-13T11:58:30;99982.65;;;27.83;28.94
77893;BME280;67087;50.094;14.338;2023-02-13T12:01:10;99980.49;;;27.35;28.93
77893;BME280;67087;50.094;14.338;2023-02-13T12:03:27;99981.14;;;27.21;29.26
77893;BME280;67087;50.094;14.338;2023-02-13T12:08:12;99973.50;;;27.45;29.14
77893;BME280;67087;50.094;14.338;2023-02-13T12:10:37;99972.67;;;27.62;29.25
77893;BME280;67087;50.094;14.338;2023-02-13T12:13:11;99973.59;;;27.30;29.18
77893;BME280;67087;50.094;14.338;2023-02-13T12:15:30;99966.20;;;27.26;29.24
77893;BME280;67087;50.094;14.338;2023-02-13T12:18:02;99963.98;;;27.28;27.89
77893;BME280;67087;50.094;14.338;2023-02-13T12:20:20;99963.10;;;27.27;28.07
77893;BME280;67087;50.094;14.338;2023-02-13T12:22:54;99963.36;;;27.61;28.72
77893;BME280;67087;50.094;14.338;2023-02-13T12:25:22;99959.18;;;27.52;28.95
77893;BME280;67087;50.094;14.338;2023-02-13T12:27:42;99956.42;;;27.23;28.98
77893;BME280;67087;50.094;14.338;2023-02-13T12:30:11;99951.05;;;27.42;29.21
77893;BME280;67087;50.094;14.338;2023-02-13T12:32:31;99946.58;;;27.32;29.27
77893;BME280;67087;50.094;14.338;2023-02-13T12:35:01;99945.36;;;27.72;29.45
77893;BME280;67087;50.094;14.338;2023-02-13T12:37:28;99941.74;;;27.40;29.44
77893;BME280;67087;50.094;14.338;2023-02-13T12:39:50;99936.70;;;27.57;29.50
77893;BME280;67087;50.094;14.338;2023-02-13T12:42:21;99934.81;;;27.45;29.68
77893;BME280;67087;50.094;14.338;2023-02-13T12:44:47;99935.46;;;27.39;29.56
77893;BME280;67087;50.094;14.338;2023-02-13T12:47:07;99935.66;;;27.60;29.65
77893;BME280;67087;50.094;14.338;2023-02-13T12:49:37;99930.83;;;27.72;29.81
77893;BME280;67087;50.094;14.338;2023-02-13T12:51:55;99932.60;;;27.32;29.52
77893;BME280;67087;50.094;14.338;2023-02-13T12:54:29;99929.20;;;27.76;28.11